createdAt,value
2018-03-17T00:00:25.254Z,8.40
2018-03-17T00:01:25.227Z,8.10
2018-03-17T00:02:25.198Z,7.70
2018-03-17T00:03:25.173Z,7.30
2018-03-17T00:04:25.151Z,8.90
2018-03-17T00:05:25.112Z,8.10
2018-03-17T00:06:25.085Z,6.30
2018-03-17T00:07:25.056Z,8.50
2018-03-17T00:08:25.026Z,7.40
2018-03-17T00:09:25.021Z,9.10
2018-03-17T00:10:24.972Z,7.70
2018-03-17T00:11:24.947Z,6.70
2018-03-17T00:12:24.917Z,8.30
2018-03-17T00:13:24.899Z,6.80
2018-03-17T00:14:24.861Z,6.20
2018-03-17T00:15:24.841Z,7.30
2018-03-17T00:16:24.917Z,7.00
2018-03-17T00:17:24.780Z,7.60
2018-03-17T00:18:24.750Z,7.20
2018-03-17T00:19:24.793Z,7.40
2018-03-17T00:20:24.693Z,7.90
2018-03-17T00:21:24.664Z,7.30
2018-03-17T00:22:24.671Z,5.70
2018-03-17T00:23:24.614Z,7.30
2018-03-17T00:24:24.582Z,6.20
2018-03-17T00:25:24.552Z,7.10
2018-03-17T00:26:24.544Z,7.50
2018-03-17T00:27:24.494Z,7.50
2018-03-17T00:28:24.477Z,7.10
2018-03-17T00:29:24.439Z,7.10
2018-03-17T00:30:24.413Z,5.10
2018-03-17T00:31:24.387Z,6.40
2018-03-17T00:32:24.358Z,5.90
2018-03-17T00:33:24.328Z,6.00
2018-03-17T00:34:24.299Z,7.60
2018-03-17T00:35:24.273Z,6.80
2018-03-17T00:36:24.251Z,7.20
2018-03-17T00:37:24.218Z,6.60
2018-03-17T00:38:24.187Z,5.90
2018-03-17T00:39:24.160Z,4.50
2018-03-17T00:40:24.135Z,7.00
2018-03-17T00:41:24.103Z,7.10
2018-03-17T00:42:24.078Z,5.80
2018-03-17T00:43:24.051Z,5.50
2018-03-17T00:44:24.022Z,6.60
2018-03-17T00:45:23.995Z,4.80
2018-03-17T00:46:23.963Z,4.70
2018-03-17T00:47:23.944Z,5.00
2018-03-17T00:48:23.907Z,5.00
2018-03-17T00:49:23.882Z,5.00
2018-03-17T00:50:23.850Z,5.40
2018-03-17T00:51:23.826Z,4.50
2018-03-17T00:52:23.794Z,5.10
2018-03-17T00:53:23.766Z,6.00
2018-03-17T00:54:23.746Z,5.60
2018-03-17T00:55:23.710Z,5.90
2018-03-17T00:56:23.681Z,5.60
2018-03-17T00:57:23.657Z,4.40
2018-03-17T00:58:23.638Z,5.60
2018-03-17T00:59:23.594Z,5.60
2018-03-17T01:00:23.565Z,5.40
2018-03-17T01:01:23.614Z,5.40
2018-03-17T01:02:23.510Z,4.80
2018-03-17T01:03:23.485Z,5.50
2018-03-17T01:04:23.508Z,5.10
2018-03-17T01:05:23.427Z,4.40
2018-03-17T01:06:23.397Z,4.20
2018-03-17T01:07:23.374Z,5.10
2018-03-17T01:08:23.347Z,4.40
2018-03-17T01:09:23.316Z,4.40
2018-03-17T01:10:23.291Z,4.30
2018-03-17T01:11:23.269Z,4.00
2018-03-17T01:12:23.232Z,3.20
2018-03-17T01:13:23.199Z,4.00
2018-03-17T01:14:23.178Z,4.60
2018-03-17T01:15:23.143Z,5.20
2018-03-17T01:16:23.112Z,4.10
2018-03-17T01:17:23.086Z,3.80
2018-03-17T01:18:23.089Z,4.90
2018-03-17T01:19:23.028Z,5.00
2018-03-17T01:20:23.008Z,4.30
2018-03-17T01:21:22.971Z,4.70
2018-03-17T01:22:22.945Z,4.30
2018-03-17T01:23:22.919Z,4.80
2018-03-17T01:24:22.885Z,3.90
2018-03-17T01:25:22.859Z,3.00
2018-03-17T01:26:22.949Z,3.60
2018-03-17T01:27:22.807Z,4.20
2018-03-17T01:28:22.771Z,4.30
2018-03-17T01:29:22.766Z,4.20
2018-03-17T01:30:22.717Z,4.60
2018-03-17T01:31:22.685Z,4.40
2018-03-17T01:32:22.653Z,3.70
2018-03-17T01:33:22.640Z,3.80
2018-03-17T01:34:22.608Z,4.10
2018-03-17T01:35:22.570Z,4.00
2018-03-17T01:36:22.542Z,4.40
2018-03-17T01:37:22.513Z,4.50
2018-03-17T01:38:22.483Z,4.40
2018-03-17T01:39:22.455Z,4.00
2018-03-17T01:40:22.425Z,4.50
2018-03-17T01:41:22.409Z,4.10
2018-03-17T01:42:22.370Z,4.60
2018-03-17T01:43:22.350Z,4.10
2018-03-17T01:44:22.309Z,4.40
2018-03-17T01:45:22.283Z,3.60
2018-03-17T01:46:22.254Z,4.60
2018-03-17T01:47:22.228Z,3.30
2018-03-17T01:48:22.199Z,3.30
2018-03-17T01:49:22.171Z,4.00
2018-03-17T01:50:22.140Z,3.70
2018-03-17T01:51:22.114Z,4.70
2018-03-17T01:52:22.081Z,4.70
2018-03-17T01:53:22.058Z,5.20
2018-03-17T01:54:22.033Z,4.50
2018-03-17T01:55:22.000Z,4.70
2018-03-17T01:56:21.982Z,4.20
2018-03-17T01:57:21.938Z,3.60
2018-03-17T01:58:21.911Z,4.80
2018-03-17T01:59:21.893Z,4.00
2018-03-17T02:00:21.851Z,3.90
2018-03-17T02:01:21.822Z,4.10
2018-03-17T02:02:21.818Z,4.20
2018-03-17T02:03:21.768Z,4.10
2018-03-17T02:04:21.746Z,3.70
2018-03-17T02:05:21.758Z,4.00
2018-03-17T02:06:21.680Z,4.40
2018-03-17T02:07:21.651Z,4.80
2018-03-17T02:08:21.627Z,4.50
2018-03-17T02:09:21.590Z,4.80
2018-03-17T02:10:21.576Z,4.80
2018-03-17T02:11:21.536Z,4.80
2018-03-17T02:12:21.509Z,4.20
2018-03-17T02:13:21.478Z,4.10
2018-03-17T02:14:21.451Z,3.90
2018-03-17T02:15:21.425Z,3.80
2018-03-17T02:16:21.391Z,4.20
2018-03-17T02:17:21.363Z,4.40
2018-03-17T02:18:21.348Z,4.20
2018-03-17T02:19:21.309Z,3.80
2018-03-17T02:20:21.296Z,4.40
2018-03-17T02:21:21.245Z,4.40
2018-03-17T02:22:21.215Z,3.90
2018-03-17T02:23:21.190Z,4.40
2018-03-17T02:24:21.158Z,4.50
2018-03-17T02:25:21.138Z,4.30
2018-03-17T02:26:21.099Z,4.90
2018-03-17T02:27:21.176Z,4.80
2018-03-17T02:28:21.047Z,4.30
2018-03-17T02:29:21.014Z,5.10
2018-03-17T02:30:21.003Z,3.60
2018-03-17T02:31:20.964Z,3.90
2018-03-17T02:32:20.930Z,4.60
2018-03-17T02:33:20.903Z,4.30
2018-03-17T02:34:20.872Z,3.90
2018-03-17T02:35:20.844Z,2.80
2018-03-17T02:36:20.813Z,3.60
2018-03-17T02:37:20.799Z,4.50
2018-03-17T02:38:20.838Z,3.20
2018-03-17T02:39:20.726Z,3.90
2018-03-17T02:40:20.707Z,4.20
2018-03-17T02:41:20.720Z,4.60
2018-03-17T02:42:20.638Z,4.60
2018-03-17T02:43:20.609Z,3.50
2018-03-17T02:44:20.584Z,4.20
2018-03-17T02:45:20.566Z,3.70
2018-03-17T02:46:20.524Z,4.60
2018-03-17T02:47:20.496Z,4.10
2018-03-17T02:48:20.465Z,4.60
2018-03-17T02:49:20.436Z,4.20
2018-03-17T02:50:20.409Z,4.20
2018-03-17T02:51:20.377Z,4.90
2018-03-17T02:52:20.349Z,4.30
2018-03-17T02:53:20.325Z,4.30
2018-03-17T02:54:20.294Z,4.80
2018-03-17T02:55:20.268Z,4.40
2018-03-17T02:56:20.232Z,4.40
2018-03-17T02:57:20.216Z,4.70
2018-03-17T02:58:20.172Z,4.90
2018-03-17T02:59:20.144Z,4.50
2018-03-17T03:00:20.122Z,4.10
2018-03-17T03:01:20.084Z,4.80
2018-03-17T03:02:20.057Z,3.80
2018-03-17T03:03:20.102Z,4.90
2018-03-17T03:04:19.996Z,4.20
2018-03-17T03:05:19.970Z,3.90
2018-03-17T03:06:20.011Z,4.40
2018-03-17T03:07:19.912Z,4.80
2018-03-17T03:08:19.880Z,4.10
2018-03-17T03:09:19.852Z,5.60
2018-03-17T03:10:19.822Z,3.40
2018-03-17T03:11:19.793Z,4.40
2018-03-17T03:12:19.766Z,4.50
2018-03-17T03:13:19.734Z,5.10
2018-03-17T03:14:19.705Z,4.50
2018-03-17T03:15:19.679Z,5.60
2018-03-17T03:16:19.654Z,5.10
2018-03-17T03:17:19.619Z,4.60
2018-03-17T03:18:19.591Z,5.10
2018-03-17T03:19:19.557Z,5.20
2018-03-17T03:20:19.528Z,5.30
2018-03-17T03:21:19.501Z,4.50
2018-03-17T03:22:19.470Z,4.30
2018-03-17T03:23:19.440Z,4.60
2018-03-17T03:24:19.411Z,5.10
2018-03-17T03:25:19.384Z,5.10
2018-03-17T03:26:19.358Z,5.00
2018-03-17T03:27:19.326Z,3.90
2018-03-17T03:28:19.301Z,4.70
2018-03-17T03:29:19.267Z,4.50
2018-03-17T03:30:19.238Z,3.70
2018-03-17T03:31:19.226Z,4.30
2018-03-17T03:32:19.180Z,5.40
2018-03-17T03:33:19.149Z,4.60
2018-03-17T03:34:19.135Z,5.00
2018-03-17T03:35:19.093Z,3.90
2018-03-17T03:36:19.061Z,4.20
2018-03-17T03:37:19.038Z,4.40
2018-03-17T03:38:19.007Z,5.20
2018-03-17T03:39:19.047Z,5.00
2018-03-17T03:40:18.946Z,4.70
2018-03-17T03:41:18.916Z,5.50
2018-03-17T03:42:18.933Z,4.90
2018-03-17T03:43:18.866Z,4.80
2018-03-17T03:44:18.829Z,5.60
2018-03-17T03:45:18.901Z,4.30
2018-03-17T03:46:18.777Z,4.30
2018-03-17T03:47:18.740Z,4.30
2018-03-17T03:48:18.715Z,4.90
2018-03-17T03:49:18.686Z,5.70
2018-03-17T03:50:18.655Z,4.90
2018-03-17T03:51:18.634Z,4.60
2018-03-17T03:52:18.594Z,4.80
2018-03-17T03:53:18.585Z,5.20
2018-03-17T03:54:18.536Z,5.20
2018-03-17T03:55:18.506Z,4.20
2018-03-17T03:56:18.476Z,4.80
2018-03-17T03:57:18.449Z,4.90
2018-03-17T03:58:18.431Z,5.30
2018-03-17T03:59:18.389Z,4.50
2018-03-17T04:00:18.371Z,4.60
2018-03-17T04:01:18.332Z,4.30
2018-03-17T04:02:18.302Z,4.80
2018-03-17T04:03:18.276Z,4.40
2018-03-17T04:04:18.356Z,5.90
2018-03-17T04:05:18.213Z,4.70
2018-03-17T04:06:18.186Z,5.00
2018-03-17T04:07:18.216Z,5.10
2018-03-17T04:08:18.125Z,5.80
2018-03-17T04:09:18.097Z,5.20
2018-03-17T04:10:18.072Z,5.10
2018-03-17T04:11:18.038Z,4.60
2018-03-17T04:12:18.007Z,4.50
2018-03-17T04:13:17.990Z,5.40
2018-03-17T04:14:17.952Z,5.60
2018-03-17T04:15:17.921Z,4.60
2018-03-17T04:16:17.896Z,4.00
2018-03-17T04:17:17.868Z,5.10
2018-03-17T04:18:17.830Z,5.20
2018-03-17T04:19:17.810Z,5.20
2018-03-17T04:20:17.773Z,5.40
2018-03-17T04:21:17.743Z,5.40
2018-03-17T04:22:17.715Z,3.90
2018-03-17T04:23:17.687Z,4.80
2018-03-17T04:24:17.655Z,5.20
2018-03-17T04:25:17.626Z,4.20
2018-03-17T04:26:17.597Z,5.00
2018-03-17T04:27:17.571Z,5.30
2018-03-17T04:28:17.539Z,5.00
2018-03-17T04:29:17.509Z,5.70
2018-03-17T04:30:17.480Z,4.60
2018-03-17T04:31:17.448Z,5.50
2018-03-17T04:32:17.419Z,3.60
2018-03-17T04:33:17.392Z,5.60
2018-03-17T04:34:17.361Z,5.20
2018-03-17T04:35:17.332Z,5.90
2018-03-17T04:36:17.308Z,4.50
2018-03-17T04:37:17.271Z,5.80
2018-03-17T04:38:17.242Z,5.70
2018-03-17T04:39:17.212Z,5.00
2018-03-17T04:40:17.183Z,4.80
2018-03-17T04:41:17.162Z,4.80
2018-03-17T04:42:17.158Z,4.40
2018-03-17T04:43:17.098Z,4.50
2018-03-17T04:44:17.068Z,4.70
2018-03-17T04:45:17.037Z,4.60
2018-03-17T04:46:17.007Z,4.80
2018-03-17T04:47:16.976Z,4.10
2018-03-17T04:48:16.947Z,5.10
2018-03-17T04:49:16.984Z,6.00
2018-03-17T04:50:16.888Z,5.70
2018-03-17T04:51:16.889Z,5.10
2018-03-17T04:52:16.830Z,5.10
2018-03-17T04:53:16.802Z,5.40
2018-03-17T04:54:16.772Z,5.80
2018-03-17T04:55:16.742Z,4.40
2018-03-17T04:56:16.711Z,4.80
2018-03-17T04:57:16.692Z,4.10
2018-03-17T04:58:16.655Z,3.80
2018-03-17T04:59:16.626Z,3.80
2018-03-17T05:00:16.597Z,4.20
2018-03-17T05:01:16.622Z,4.10
2018-03-17T05:02:16.537Z,4.80
2018-03-17T05:03:16.544Z,5.10
2018-03-17T05:04:16.541Z,4.70
2018-03-17T05:05:16.448Z,4.90
2018-03-17T05:06:16.517Z,3.50
2018-03-17T05:07:16.388Z,4.70
2018-03-17T05:08:16.378Z,4.70
2018-03-17T05:09:16.353Z,5.00
2018-03-17T05:10:16.296Z,3.90
2018-03-17T05:11:16.377Z,4.90
2018-03-17T05:12:16.240Z,6.30
2018-03-17T05:13:16.209Z,5.50
2018-03-17T05:14:16.185Z,4.70
2018-03-17T05:15:16.184Z,4.70
2018-03-17T05:16:16.122Z,4.40
2018-03-17T05:17:16.104Z,4.20
2018-03-17T05:18:16.062Z,4.40
2018-03-17T05:19:16.034Z,4.20
2018-03-17T05:20:16.020Z,4.20
2018-03-17T05:21:15.973Z,4.70
2018-03-17T05:22:15.943Z,3.90
2018-03-17T05:23:15.913Z,4.20
2018-03-17T05:24:15.882Z,4.30
2018-03-17T05:25:16.009Z,4.20
2018-03-17T05:26:15.822Z,5.10
2018-03-17T05:27:15.794Z,5.00
2018-03-17T05:28:15.871Z,4.80
2018-03-17T05:29:15.733Z,4.20
2018-03-17T05:30:15.711Z,5.40
2018-03-17T05:31:15.784Z,5.50
2018-03-17T05:32:15.645Z,5.60
2018-03-17T05:33:15.620Z,4.80
2018-03-17T05:34:15.583Z,5.20
2018-03-17T05:35:15.556Z,4.40
2018-03-17T05:36:15.527Z,4.80
2018-03-17T05:37:15.496Z,4.00
2018-03-17T05:38:15.466Z,3.90
2018-03-17T05:39:15.439Z,5.00
2018-03-17T05:40:15.412Z,4.40
2018-03-17T05:41:15.387Z,4.20
2018-03-17T05:42:15.350Z,5.10
2018-03-17T05:43:15.332Z,4.90
2018-03-17T05:44:15.297Z,5.00
2018-03-17T05:45:15.260Z,5.50
2018-03-17T05:46:15.242Z,4.90
2018-03-17T05:47:15.202Z,4.10
2018-03-17T05:48:15.180Z,4.80
2018-03-17T05:49:15.139Z,5.40
2018-03-17T05:50:15.113Z,5.00
2018-03-17T05:51:15.082Z,5.00
2018-03-17T05:52:15.095Z,4.90
2018-03-17T05:53:15.026Z,4.40
2018-03-17T05:54:14.992Z,4.70
2018-03-17T05:55:14.961Z,4.50
2018-03-17T05:56:14.934Z,3.90
2018-03-17T05:57:14.901Z,4.90
2018-03-17T05:58:14.869Z,4.50
2018-03-17T05:59:14.845Z,4.10
2018-03-17T06:00:14.809Z,4.70
2018-03-17T06:01:14.782Z,5.00
2018-03-17T06:02:14.753Z,5.30
2018-03-17T06:03:14.724Z,4.60
2018-03-17T06:04:14.731Z,4.00
2018-03-17T06:05:14.667Z,4.90
2018-03-17T06:06:14.638Z,4.00
2018-03-17T06:07:14.607Z,4.50
2018-03-17T06:08:14.579Z,4.60
2018-03-17T06:09:14.559Z,4.70
2018-03-17T06:10:14.527Z,5.00
2018-03-17T06:11:14.486Z,4.90
2018-03-17T06:12:14.460Z,4.20
2018-03-17T06:13:14.425Z,4.80
2018-03-17T06:14:14.401Z,5.60
2018-03-17T06:15:14.373Z,4.30
2018-03-17T06:16:14.337Z,4.50
2018-03-17T06:17:14.306Z,5.20
2018-03-17T06:18:14.276Z,5.50
2018-03-17T06:19:14.354Z,4.50
2018-03-17T06:20:14.214Z,4.70
2018-03-17T06:21:14.189Z,4.60
2018-03-17T06:22:14.159Z,5.80
2018-03-17T06:23:14.128Z,6.00
2018-03-17T06:24:14.098Z,5.70
2018-03-17T06:25:14.068Z,4.40
2018-03-17T06:26:14.041Z,4.10
2018-03-17T06:27:14.007Z,5.40
2018-03-17T06:28:13.977Z,4.80
2018-03-17T06:29:13.946Z,5.50
2018-03-17T06:30:13.919Z,5.70
2018-03-17T06:31:13.889Z,5.10
2018-03-17T06:32:13.860Z,4.60
2018-03-17T06:33:13.829Z,5.10
2018-03-17T06:34:13.803Z,5.00
2018-03-17T06:35:13.773Z,4.20
2018-03-17T06:36:13.738Z,5.30
2018-03-17T06:37:13.722Z,4.70
2018-03-17T06:38:13.697Z,5.50
2018-03-17T06:39:13.658Z,5.90
2018-03-17T06:40:13.624Z,5.60
2018-03-17T06:41:13.659Z,4.80
2018-03-17T06:42:13.568Z,4.50
2018-03-17T06:43:13.533Z,4.50
2018-03-17T06:44:13.507Z,5.00
2018-03-17T06:45:13.471Z,5.50
2018-03-17T06:46:13.442Z,4.80
2018-03-17T06:47:13.418Z,5.30
2018-03-17T06:48:13.381Z,5.70
2018-03-17T06:49:13.351Z,5.30
2018-03-17T06:50:13.324Z,4.90
2018-03-17T06:51:13.294Z,5.50
2018-03-17T06:52:13.266Z,5.80
2018-03-17T06:53:13.288Z,5.20
2018-03-17T06:54:13.212Z,4.60
2018-03-17T06:55:13.207Z,4.40
2018-03-17T06:56:13.145Z,5.30
2018-03-17T06:57:13.115Z,5.50
2018-03-17T06:58:13.094Z,5.50
2018-03-17T06:59:13.067Z,4.90
2018-03-17T07:00:13.037Z,4.60
2018-03-17T07:01:13.013Z,4.80
2018-03-17T07:02:12.970Z,4.50
2018-03-17T07:03:12.957Z,5.30
2018-03-17T07:04:12.914Z,5.30
2018-03-17T07:05:12.880Z,4.30
2018-03-17T07:06:12.853Z,5.60
2018-03-17T07:07:12.819Z,4.80
2018-03-17T07:08:12.805Z,5.40
2018-03-17T07:09:12.766Z,5.50
2018-03-17T07:10:12.741Z,5.10
2018-03-17T07:11:12.703Z,4.50
2018-03-17T07:12:12.675Z,4.80
2018-03-17T07:13:12.643Z,5.30
2018-03-17T07:14:12.681Z,4.50
2018-03-17T07:15:12.589Z,5.50
2018-03-17T07:16:12.550Z,5.20
2018-03-17T07:17:12.531Z,5.40
2018-03-17T07:18:12.496Z,4.70
2018-03-17T07:19:12.538Z,4.60
2018-03-17T07:20:12.538Z,4.30
2018-03-17T07:21:12.412Z,5.20
2018-03-17T07:22:12.376Z,5.50
2018-03-17T07:23:12.382Z,4.40
2018-03-17T07:24:12.320Z,4.70
2018-03-17T07:25:12.327Z,4.80
2018-03-17T07:26:12.267Z,3.80
2018-03-17T07:27:12.229Z,4.20
2018-03-17T07:28:12.199Z,5.50
2018-03-17T07:29:12.171Z,4.00
2018-03-17T07:30:12.148Z,3.90
2018-03-17T07:31:12.109Z,5.10
2018-03-17T07:32:12.089Z,4.70
2018-03-17T07:33:12.054Z,5.00
2018-03-17T07:34:12.037Z,4.50
2018-03-17T07:35:11.997Z,5.70
2018-03-17T07:36:11.967Z,4.50
2018-03-17T07:37:11.931Z,4.40
2018-03-17T07:38:11.920Z,5.30
2018-03-17T07:39:11.886Z,4.80
2018-03-17T07:40:11.848Z,5.10
2018-03-17T07:41:11.829Z,4.90
2018-03-17T07:42:11.900Z,3.50
2018-03-17T07:43:11.755Z,4.90
2018-03-17T07:44:11.734Z,4.40
2018-03-17T07:45:11.709Z,4.20
2018-03-17T07:46:11.675Z,4.20
2018-03-17T07:47:11.639Z,4.30
2018-03-17T07:48:11.611Z,4.40
2018-03-17T07:49:11.589Z,5.10
2018-03-17T07:50:11.548Z,4.80
2018-03-17T07:51:11.538Z,4.70
2018-03-17T07:52:11.489Z,4.30
2018-03-17T07:53:11.467Z,4.70
2018-03-17T07:54:11.435Z,4.10
2018-03-17T07:55:11.408Z,4.90
2018-03-17T07:56:11.373Z,4.10
2018-03-17T07:57:11.352Z,4.90
2018-03-17T07:58:11.372Z,5.30
2018-03-17T07:59:11.283Z,5.10
2018-03-17T08:00:11.254Z,5.10
2018-03-17T08:01:11.223Z,4.20
2018-03-17T08:02:11.247Z,4.50
2018-03-17T08:03:11.166Z,4.60
2018-03-17T08:04:11.137Z,5.10
2018-03-17T08:05:11.124Z,4.90
2018-03-17T08:06:11.078Z,3.90
2018-03-17T08:07:11.066Z,3.70
2018-03-17T08:08:11.017Z,4.10
2018-03-17T08:09:10.994Z,4.80
2018-03-17T08:10:10.960Z,3.70
2018-03-17T08:11:10.933Z,4.60
2018-03-17T08:12:10.904Z,4.60
2018-03-17T08:13:10.891Z,5.00
2018-03-17T08:14:10.853Z,3.70
2018-03-17T08:15:10.824Z,5.00
2018-03-17T08:16:10.797Z,4.60
2018-03-17T08:17:10.755Z,4.40
2018-03-17T08:18:10.728Z,3.60
2018-03-17T08:19:10.697Z,4.40
2018-03-17T08:20:10.667Z,3.90
2018-03-17T08:21:10.636Z,4.30
2018-03-17T08:22:10.612Z,5.10
2018-03-17T08:23:10.586Z,4.30
2018-03-17T08:24:10.551Z,4.30
2018-03-17T08:25:10.535Z,4.40
2018-03-17T08:26:10.506Z,4.80
2018-03-17T08:27:10.470Z,4.40
2018-03-17T08:28:10.436Z,4.00
2018-03-17T08:29:10.402Z,3.80
2018-03-17T08:30:10.406Z,4.60
2018-03-17T08:31:10.345Z,3.70
2018-03-17T08:32:10.315Z,5.00
2018-03-17T08:33:10.349Z,4.50
2018-03-17T08:34:10.289Z,4.70
2018-03-17T08:35:10.237Z,5.10
2018-03-17T08:36:10.199Z,4.50
2018-03-17T08:37:10.174Z,3.90
2018-03-17T08:38:10.140Z,4.80
2018-03-17T08:39:10.112Z,3.70
2018-03-17T08:40:10.082Z,5.00
2018-03-17T08:41:10.059Z,4.00
2018-03-17T08:42:10.023Z,3.70
2018-03-17T08:43:09.995Z,5.10
2018-03-17T08:44:09.972Z,5.40
2018-03-17T08:45:09.946Z,5.50
2018-03-17T08:46:09.917Z,5.90
2018-03-17T08:47:09.891Z,4.20
2018-03-17T08:48:09.857Z,4.20
2018-03-17T08:49:09.820Z,4.00
2018-03-17T08:50:09.791Z,5.00
2018-03-17T08:51:09.770Z,3.90
2018-03-17T08:52:09.730Z,4.40
2018-03-17T08:53:09.701Z,4.20
2018-03-17T08:54:09.685Z,3.60
2018-03-17T08:55:09.661Z,4.40
2018-03-17T08:56:09.620Z,4.80
2018-03-17T08:57:09.590Z,4.20
2018-03-17T08:58:09.559Z,3.60
2018-03-17T08:59:09.532Z,3.70
2018-03-17T09:00:09.499Z,3.60
2018-03-17T09:01:09.471Z,4.00
2018-03-17T09:02:09.449Z,4.50
2018-03-17T09:03:09.419Z,4.60
2018-03-17T09:04:09.401Z,4.20
2018-03-17T09:05:09.385Z,4.40
2018-03-17T09:06:09.392Z,4.80
2018-03-17T09:07:09.299Z,4.20
2018-03-17T09:08:09.282Z,4.50
2018-03-17T09:09:09.391Z,4.30
2018-03-17T09:10:09.210Z,5.20
2018-03-17T09:11:09.187Z,4.80
2018-03-17T09:12:09.222Z,4.90
2018-03-17T09:13:09.124Z,3.70
2018-03-17T09:14:09.096Z,4.10
2018-03-17T09:15:09.068Z,4.50
2018-03-17T09:16:09.038Z,4.90
2018-03-17T09:17:09.019Z,4.50
2018-03-17T09:18:08.990Z,5.20
2018-03-17T09:19:08.964Z,4.10
2018-03-17T09:20:08.941Z,4.20
2018-03-17T09:21:08.897Z,4.40
2018-03-17T09:22:08.868Z,3.90
2018-03-17T09:23:08.846Z,3.40
2018-03-17T09:24:08.814Z,3.50
2018-03-17T09:25:08.785Z,3.80
2018-03-17T09:26:08.761Z,4.40
2018-03-17T09:27:08.726Z,4.60
2018-03-17T09:28:08.696Z,4.10
2018-03-17T09:29:08.671Z,4.20
2018-03-17T09:30:08.644Z,4.50
2018-03-17T09:31:08.974Z,3.90
2018-03-17T09:32:08.591Z,3.90
2018-03-17T09:33:08.563Z,4.30
2018-03-17T09:34:08.551Z,4.10
2018-03-17T09:35:08.501Z,4.60
2018-03-17T09:36:08.468Z,4.50
2018-03-17T09:37:08.454Z,4.30
2018-03-17T09:38:08.424Z,3.80
2018-03-17T09:39:08.388Z,3.70
2018-03-17T09:40:08.356Z,4.40
2018-03-17T09:41:08.328Z,3.40
2018-03-17T09:42:08.296Z,5.00
2018-03-17T09:43:08.271Z,4.40
2018-03-17T09:44:08.241Z,4.90
2018-03-17T09:45:08.225Z,5.80
2018-03-17T09:46:08.184Z,4.50
2018-03-17T09:47:08.162Z,4.60
2018-03-17T09:48:08.125Z,4.70
2018-03-17T09:49:08.100Z,4.40
2018-03-17T09:50:08.070Z,4.20
2018-03-17T09:51:08.041Z,4.00
2018-03-17T09:52:08.019Z,4.00
2018-03-17T09:53:07.983Z,4.00
2018-03-17T09:54:07.962Z,4.70
2018-03-17T09:55:07.930Z,4.00
2018-03-17T09:56:07.902Z,3.90
2018-03-17T09:57:07.906Z,4.90
2018-03-17T09:58:07.843Z,4.50
2018-03-17T09:59:07.815Z,3.80
2018-03-17T10:00:07.800Z,4.80
2018-03-17T10:01:07.763Z,4.30
2018-03-17T10:02:07.730Z,5.10
2018-03-17T10:03:07.699Z,4.50
2018-03-17T10:04:07.671Z,4.70
2018-03-17T10:05:07.661Z,4.00
2018-03-17T10:06:07.630Z,4.70
2018-03-17T10:07:07.601Z,4.60
2018-03-17T10:08:07.559Z,5.60
2018-03-17T10:09:07.532Z,4.20
2018-03-17T10:10:07.508Z,4.50
2018-03-17T10:11:07.477Z,4.20
2018-03-17T10:12:07.455Z,4.80
2018-03-17T10:13:07.437Z,5.00
2018-03-17T10:14:07.397Z,5.70
2018-03-17T10:15:07.367Z,4.40
2018-03-17T10:16:07.340Z,4.80
2018-03-17T10:17:07.314Z,4.00
2018-03-17T10:18:07.296Z,4.70
2018-03-17T10:19:07.328Z,4.70
2018-03-17T10:20:07.221Z,4.20
2018-03-17T10:21:07.193Z,4.40
2018-03-17T10:22:07.167Z,5.30
2018-03-17T10:23:07.134Z,4.40
2018-03-17T10:24:07.112Z,4.80
2018-03-17T10:25:07.097Z,5.80
2018-03-17T10:26:07.049Z,5.10
2018-03-17T10:27:07.024Z,5.50
2018-03-17T10:28:06.991Z,4.50
2018-03-17T10:29:06.967Z,3.90
2018-03-17T10:30:06.948Z,4.40
2018-03-17T10:31:06.912Z,5.40
2018-03-17T10:32:06.880Z,4.10
2018-03-17T10:33:06.948Z,3.90
2018-03-17T10:34:06.828Z,4.70
2018-03-17T10:35:06.816Z,4.70
2018-03-17T10:36:06.765Z,4.40
2018-03-17T10:37:06.737Z,4.60
2018-03-17T10:38:06.715Z,4.60
2018-03-17T10:39:06.680Z,4.00
2018-03-17T10:40:06.650Z,3.80
2018-03-17T10:41:06.626Z,5.00
2018-03-17T10:42:06.596Z,5.00
2018-03-17T10:43:06.575Z,4.90
2018-03-17T10:44:06.539Z,4.70
2018-03-17T10:45:06.509Z,4.80
2018-03-17T10:46:06.486Z,4.90
2018-03-17T10:47:06.467Z,4.80
2018-03-17T10:48:06.447Z,4.50
2018-03-17T10:49:06.409Z,4.80
2018-03-17T10:50:06.378Z,4.20
2018-03-17T10:51:06.341Z,4.90
2018-03-17T10:52:06.339Z,4.60
2018-03-17T10:53:06.285Z,4.60
2018-03-17T10:54:06.260Z,4.60
2018-03-17T10:55:06.359Z,5.20
2018-03-17T10:56:06.208Z,4.90
2018-03-17T10:57:06.184Z,4.60
2018-03-17T10:58:06.180Z,4.90
2018-03-17T10:59:06.124Z,4.20
2018-03-17T11:00:06.098Z,4.80
2018-03-17T11:01:06.064Z,4.20
2018-03-17T11:02:06.034Z,4.60
2018-03-17T11:03:06.006Z,4.80
2018-03-17T11:04:05.977Z,5.00
2018-03-17T11:05:05.951Z,4.50
2018-03-17T11:06:06.016Z,4.60
2018-03-17T11:07:05.893Z,4.80
2018-03-17T11:08:05.867Z,4.40
2018-03-17T11:09:05.842Z,3.90
2018-03-17T11:10:05.815Z,4.50
2018-03-17T11:11:05.783Z,4.80
2018-03-17T11:12:05.765Z,5.40
2018-03-17T11:13:05.731Z,5.10
2018-03-17T11:14:05.784Z,5.10
2018-03-17T11:15:05.681Z,4.20
2018-03-17T11:16:05.647Z,3.70
2018-03-17T11:17:05.657Z,4.20
2018-03-17T11:18:05.602Z,4.60
2018-03-17T11:19:05.566Z,4.50
2018-03-17T11:20:05.542Z,4.30
2018-03-17T11:21:05.507Z,4.90
2018-03-17T11:22:05.494Z,4.20
2018-03-17T11:23:05.479Z,4.20
2018-03-17T11:24:05.426Z,4.60
2018-03-17T11:25:05.399Z,4.10
2018-03-17T11:26:05.377Z,3.80
2018-03-17T11:27:05.343Z,3.60
2018-03-17T11:28:05.315Z,4.40
2018-03-17T11:29:05.290Z,4.70
2018-03-17T11:30:05.258Z,4.10
2018-03-17T11:31:05.234Z,4.50
2018-03-17T11:32:05.213Z,4.20
2018-03-17T11:33:05.178Z,4.60
2018-03-17T11:34:05.160Z,5.00
2018-03-17T11:35:05.122Z,4.40
2018-03-17T11:36:05.106Z,4.60
2018-03-17T11:37:05.078Z,4.10
2018-03-17T11:38:05.041Z,4.70
2018-03-17T11:39:05.028Z,5.10
2018-03-17T11:40:05.013Z,5.20
2018-03-17T11:41:04.961Z,4.80
2018-03-17T11:42:04.931Z,4.50
2018-03-17T11:43:04.917Z,5.10
2018-03-17T11:44:04.883Z,4.80
2018-03-17T11:45:04.860Z,4.00
2018-03-17T11:46:04.842Z,4.70
2018-03-17T11:47:04.798Z,4.20
2018-03-17T11:48:04.770Z,4.60
2018-03-17T11:49:04.743Z,4.00
2018-03-17T11:50:04.723Z,4.10
2018-03-17T11:51:04.690Z,3.60
2018-03-17T11:52:04.669Z,4.40
2018-03-17T11:53:04.740Z,4.70
2018-03-17T11:54:04.618Z,4.80
2018-03-17T11:55:04.596Z,4.60
2018-03-17T11:56:04.561Z,5.20
2018-03-17T11:57:04.535Z,5.30
2018-03-17T11:58:04.511Z,4.90
2018-03-17T11:59:04.487Z,4.80
2018-03-17T12:00:04.447Z,4.40
2018-03-17T12:01:04.424Z,3.90
2018-03-17T12:03:04.369Z,5.30
2018-03-17T12:04:04.358Z,5.30
2018-03-17T12:05:04.316Z,4.90
2018-03-17T12:06:04.290Z,3.30
2018-03-17T12:07:04.270Z,4.80
2018-03-17T12:08:04.236Z,5.00
2018-03-17T12:09:04.221Z,5.10
2018-03-17T12:10:04.214Z,4.60
2018-03-17T12:11:04.164Z,5.10
2018-03-17T12:12:04.131Z,4.40
2018-03-17T12:13:04.104Z,4.10
2018-03-17T12:14:04.085Z,4.70
2018-03-17T12:15:04.067Z,3.80
2018-03-17T12:16:04.026Z,3.90
2018-03-17T12:17:04.004Z,4.80
2018-03-17T12:18:03.989Z,4.40
2018-03-17T12:19:03.947Z,5.20
2018-03-17T12:20:03.932Z,3.70
2018-03-17T12:21:03.896Z,4.50
2018-03-17T12:22:03.881Z,5.10
2018-03-17T12:23:03.842Z,4.90
2018-03-17T12:24:03.818Z,4.70
2018-03-17T12:25:03.787Z,4.40
2018-03-17T12:26:03.762Z,3.90
2018-03-17T12:27:03.736Z,3.50
2018-03-17T12:28:03.796Z,4.50
2018-03-17T12:29:03.691Z,4.60
2018-03-17T12:30:03.669Z,3.60
2018-03-17T12:31:03.647Z,4.60
2018-03-17T12:32:03.605Z,4.30
2018-03-17T12:33:03.578Z,4.40
2018-03-17T12:34:03.605Z,3.70
2018-03-17T12:35:03.531Z,4.00
2018-03-17T12:36:03.502Z,3.30
2018-03-17T12:37:03.471Z,3.90
2018-03-17T12:38:03.449Z,4.10
2018-03-17T12:39:03.425Z,4.40
2018-03-17T12:40:03.389Z,3.80
2018-03-17T12:41:03.370Z,3.60
2018-03-17T12:42:03.348Z,3.50
2018-03-17T12:43:03.314Z,4.00
2018-03-17T12:44:03.288Z,3.70
2018-03-17T12:45:03.290Z,3.60
2018-03-17T12:46:03.227Z,4.40
2018-03-17T12:47:03.221Z,4.30
2018-03-17T12:48:03.174Z,3.90
2018-03-17T12:49:03.154Z,3.60
2018-03-17T12:50:03.133Z,3.60
2018-03-17T12:51:03.108Z,4.20
2018-03-17T12:52:03.068Z,4.20
2018-03-17T12:53:03.050Z,3.90
2018-03-17T12:54:03.018Z,3.60
2018-03-17T12:55:02.987Z,4.00
2018-03-17T12:56:02.960Z,4.10
2018-03-17T12:57:02.942Z,4.20
2018-03-17T12:58:02.910Z,4.10
2018-03-17T12:59:02.894Z,4.20
2018-03-17T13:00:02.853Z,4.40
2018-03-17T13:01:02.942Z,4.20
2018-03-17T13:02:02.800Z,3.80
2018-03-17T13:03:02.772Z,3.50
2018-03-17T13:04:02.747Z,3.40
2018-03-17T13:05:02.718Z,4.60
2018-03-17T13:06:02.689Z,4.00
2018-03-17T13:07:02.669Z,3.70
2018-03-17T13:08:02.641Z,4.00
2018-03-17T13:09:02.608Z,3.60
2018-03-17T13:10:02.586Z,3.80
2018-03-17T13:11:02.557Z,3.80
2018-03-17T13:12:02.535Z,4.10
2018-03-17T13:13:02.507Z,4.60
2018-03-17T13:14:02.478Z,3.60
2018-03-17T13:15:02.450Z,3.50
2018-03-17T13:16:02.420Z,5.00
2018-03-17T13:17:02.404Z,4.90
2018-03-17T13:18:02.367Z,3.70
2018-03-17T13:19:02.338Z,3.70